sensor_id;sensor_type;location;lat;lon;timestamp;pressure;altitude;pressure_sealevel;temperature;humidity
80620;BME280;69979;53.682;-2.690;2023-08-07T00:01:42;101575.61;;;16.76;45.54
80620;BME280;69979;53.682;-2.690;2023-08-07T00:04:08;101574.90;;;16.23;45.31
80620;BME280;69979;53.682;-2.690;2023-08-07T00:06:33;101576.75;;;16.63;44.81
80620;BME280;69979;53.682;-2.690;2023-08-07T00:08:59;101575.47;;;17.04;44.76
80620;BME280;69979;53.682;-2.690;2023-08-07T00:11:24;101575.41;;;16.91;44.04
80620;BME280;69979;53.682;-2.690;2023-08-07T00:13:50;101572.87;;;16.76;43.97
80620;BME280;69979;53.682;-2.690;2023-08-07T00:16:15;101573.55;;;16.98;44.35
80620;BME280;69979;53.682;-2.690;2023-08-07T00:18:40;101574.21;;;17.13;44.07
80620;BME280;69979;53.682;-2.690;2023-08-07T00:21:06;101574.59;;;16.90;43.73
80620;BME280;69979;53.682;-2.690;2023-08-07T00:23:31;101573.14;;;17.23;43.78
80620;BME280;69979;53.682;-2.690;2023-08-07T00:25:57;101572.71;;;17.56;43.10
80620;BME280;69979;53.682;-2.690;2023-08-07T00:28:22;101574.80;;;17.24;43.10
80620;BME280;69979;53.682;-2.690;2023-08-07T00:30:48;101572.15;;;17.39;43.15
80620;BME280;69979;53.682;-2.690;2023-08-07T00:33:13;101565.55;;;17.37;42.92
80620;BME280;69979;53.682;-2.690;2023-08-07T00:35:38;101560.39;;;17.53;42.71
80620;BME280;69979;53.682;-2.690;2023-08-07T00:38:04;101563.42;;;16.41;44.79
80620;BME280;69979;53.682;-2.690;2023-08-07T00:40:37;101557.75;;;17.12;43.59
80620;BME280;69979;53.682;-2.690;2023-08-07T00:42:55;101556.67;;;17.48;42.66
80620;BME280;69979;53.682;-2.690;2023-08-07T00:45:20;101557.95;;;17.34;42.73
80620;BME280;69979;53.682;-2.690;2023-08-07T00:47:45;101553.90;;;17.43;42.98
80620;BME280;69979;53.682;-2.690;2023-08-07T00:50:11;101550.66;;;17.38;42.80
80620;BME280;69979;53.682;-2.690;2023-08-07T00:52:36;101547.71;;;17.28;42.99
80620;BME280;69979;53.682;-2.690;2023-08-07T00:55:02;101543.85;;;17.64;42.99
80620;BME280;69979;53.682;-2.690;2023-08-07T00:57:27;101543.13;;;17.72;43.25
80620;BME280;69979;53.682;-2.690;2023-08-07T00:59:53;101542.22;;;17.67;43.09
80620;BME280;69979;53.682;-2.690;2023-08-07T01:02:18;101543.66;;;17.69;42.93
80620;BME280;69979;53.682;-2.690;2023-08-07T01:04:43;101545.93;;;16.71;43.64
80620;BME280;69979;53.682;-2.690;2023-08-07T01:07:09;101543.37;;;17.07;43.49
80620;BME280;69979;53.682;-2.690;2023-08-07T01:09:34;101543.78;;;16.09;45.11
80620;BME280;69979;53.682;-2.690;2023-08-07T01:12:05;101539.71;;;17.13;43.62
80620;BME280;69979;53.682;-2.690;2023-08-07T01:14:31;101540.08;;;16.75;44.25
80620;BME280;69979;53.682;-2.690;2023-08-07T01:16:55;101538.27;;;16.65;44.05
80620;BME280;69979;53.682;-2.690;2023-08-07T01:19:22;101535.50;;;17.05;43.64
80620;BME280;69979;53.682;-2.690;2023-08-07T01:21:45;101533.57;;;16.04;45.06
80620;BME280;69979;53.682;-2.690;2023-08-07T01:24:07;101534.61;;;16.49;44.38
80620;BME280;69979;53.682;-2.690;2023-08-07T01:26:33;101533.67;;;17.31;43.64
80620;BME280;69979;53.682;-2.690;2023-08-07T01:29:04;101537.68;;;16.50;45.16
80620;BME280;69979;53.682;-2.690;2023-08-07T01:31:24;101537.80;;;16.04;45.30
80620;BME280;69979;53.682;-2.690;2023-08-07T01:33:54;101534.06;;;17.24;43.92
80620;BME280;69979;53.682;-2.690;2023-08-07T01:36:14;101535.02;;;17.05;43.53
80620;BME280;69979;53.682;-2.690;2023-08-07T01:38:40;101532.63;;;17.31;43.38
80620;BME280;69979;53.682;-2.690;2023-08-07T01:41:05;101533.36;;;17.22;42.80
80620;BME280;69979;53.682;-2.690;2023-08-07T01:43:30;101535.70;;;17.76;42.57
80620;BME280;69979;53.682;-2.690;2023-08-07T01:45:55;101531.19;;;17.42;42.25
80620;BME280;69979;53.682;-2.690;2023-08-07T01:48:21;101529.73;;;17.42;42.13
80620;BME280;69979;53.682;-2.690;2023-08-07T01:50:46;101534.15;;;17.35;42.01
80620;BME280;69979;53.682;-2.690;2023-08-07T01:53:12;101530.84;;;17.96;41.91
80620;BME280;69979;53.682;-2.690;2023-08-07T01:55:37;101538.68;;;17.92;42.13
80620;BME280;69979;53.682;-2.690;2023-08-07T01:58:02;101539.21;;;18.08;41.84
80620;BME280;69979;53.682;-2.690;2023-08-07T02:00:28;101540.35;;;17.91;41.76
80620;BME280;69979;53.682;-2.690;2023-08-07T02:02:53;101543.84;;;18.10;41.81
80620;BME280;69979;53.682;-2.690;2023-08-07T02:05:19;101541.73;;;17.87;41.48
80620;BME280;69979;53.682;-2.690;2023-08-07T02:07:44;101537.90;;;17.62;41.36
80620;BME280;69979;53.682;-2.690;2023-08-07T02:10:10;101542.75;;;17.92;41.44
80620;BME280;69979;53.682;-2.690;2023-08-07T02:12:35;101544.16;;;18.10;41.08
80620;BME280;69979;53.682;-2.690;2023-08-07T02:15:00;101539.58;;;17.26;42.53
80620;BME280;69979;53.682;-2.690;2023-08-07T02:19:51;101543.97;;;17.23;42.24
80620;BME280;69979;53.682;-2.690;2023-08-07T02:22:17;101543.58;;;17.65;42.04
80620;BME280;69979;53.682;-2.690;2023-08-07T02:24:42;101543.98;;;17.53;41.92
80620;BME280;69979;53.682;-2.690;2023-08-07T02:27:07;101547.22;;;17.34;42.59
80620;BME280;69979;53.682;-2.690;2023-08-07T02:29:33;101549.23;;;17.55;42.16
80620;BME280;69979;53.682;-2.690;2023-08-07T02:31:58;101546.57;;;17.85;41.74
80620;BME280;69979;53.682;-2.690;2023-08-07T02:34:23;101550.71;;;17.77;41.88
80620;BME280;69979;53.682;-2.690;2023-08-07T02:36:49;101553.39;;;17.71;41.96
80620;BME280;69979;53.682;-2.690;2023-08-07T02:39:14;101559.28;;;17.85;41.93
80620;BME280;69979;53.682;-2.690;2023-08-07T02:41:40;101560.96;;;17.60;42.35
80620;BME280;69979;53.682;-2.690;2023-08-07T02:44:05;101563.09;;;17.38;42.13
80620;BME280;69979;53.682;-2.690;2023-08-07T02:46:30;101562.79;;;17.64;41.97
80620;BME280;69979;53.682;-2.690;2023-08-07T02:48:56;101563.19;;;17.87;41.65
80620;BME280;69979;53.682;-2.690;2023-08-07T02:51:21;101563.14;;;17.76;41.76
80620;BME280;69979;53.682;-2.690;2023-08-07T02:53:47;101560.41;;;17.53;42.05
80620;BME280;69979;53.682;-2.690;2023-08-07T02:56:12;101560.07;;;17.69;42.36
80620;BME280;69979;53.682;-2.690;2023-08-07T02:58:37;101555.17;;;17.17;42.69
80620;BME280;69979;53.682;-2.690;2023-08-07T03:01:04;101558.82;;;17.77;42.06
80620;BME280;69979;53.682;-2.690;2023-08-07T03:03:28;101557.42;;;17.90;41.81
80620;BME280;69979;53.682;-2.690;2023-08-07T03:05:54;101558.88;;;17.94;41.62
80620;BME280;69979;53.682;-2.690;2023-08-07T03:08:19;101559.11;;;17.96;42.12
80620;BME280;69979;53.682;-2.690;2023-08-07T03:10:50;101556.16;;;17.85;41.96
80620;BME280;69979;53.682;-2.690;2023-08-07T03:13:10;101556.65;;;17.72;41.94
80620;BME280;69979;53.682;-2.690;2023-08-07T03:15:35;101552.25;;;18.10;41.90
80620;BME280;69979;53.682;-2.690;2023-08-07T03:18:01;101549.91;;;17.69;41.78
80620;BME280;69979;53.682;-2.690;2023-08-07T03:20:26;101548.84;;;17.60;42.13
80620;BME280;69979;53.682;-2.690;2023-08-07T03:22:52;101544.44;;;17.62;42.02
80620;BME280;69979;53.682;-2.690;2023-08-07T03:25:18;101539.82;;;17.73;42.33
80620;BME280;69979;53.682;-2.690;2023-08-07T03:27:42;101537.45;;;17.48;42.58
80620;BME280;69979;53.682;-2.690;2023-08-07T03:30:08;101540.11;;;17.67;42.95
80620;BME280;69979;53.682;-2.690;2023-08-07T03:32:33;101536.49;;;16.50;45.01
80620;BME280;69979;53.682;-2.690;2023-08-07T03:34:58;101540.47;;;17.58;43.50
80620;BME280;69979;53.682;-2.690;2023-08-07T03:37:25;101539.72;;;17.60;42.76
80620;BME280;69979;53.682;-2.690;2023-08-07T03:39:50;101536.49;;;17.57;43.12
80620;BME280;69979;53.682;-2.690;2023-08-07T03:42:15;101536.61;;;17.57;42.89
80620;BME280;69979;53.682;-2.690;2023-08-07T03:44:40;101537.06;;;17.34;43.01
80620;BME280;69979;53.682;-2.690;2023-08-07T03:47:06;101536.04;;;17.49;42.75
80620;BME280;69979;53.682;-2.690;2023-08-07T03:49:31;101542.43;;;17.73;42.78
80620;BME280;69979;53.682;-2.690;2023-08-07T03:51:56;101536.93;;;17.23;42.96
80620;BME280;69979;53.682;-2.690;2023-08-07T03:54:22;101535.60;;;17.67;43.00
80620;BME280;69979;53.682;-2.690;2023-08-07T03:56:47;101527.60;;;17.96;42.55
80620;BME280;69979;53.682;-2.690;2023-08-07T03:59:13;101533.57;;;16.35;44.50
80620;BME280;69979;53.682;-2.690;2023-08-07T04:01:38;101530.71;;;14.84;48.08
80620;BME280;69979;53.682;-2.690;2023-08-07T04:04:03;101529.15;;;15.86;46.52
80620;BME280;69979;53.682;-2.690;2023-08-07T04:06:29;101534.99;;;15.08;48.09
80620;BME280;69979;53.682;-2.690;2023-08-07T04:08:54;101538.20;;;14.97;48.29
80620;BME280;69979;53.682;-2.690;2023-08-07T04:11:20;101537.35;;;14.30;49.96
80620;BME280;69979;53.682;-2.690;2023-08-07T04:13:45;101533.24;;;15.15;48.47
80620;BME280;69979;53.682;-2.690;2023-08-07T04:16:11;101527.79;;;15.82;46.85
80620;BME280;69979;53.682;-2.690;2023-08-07T04:18:36;101528.95;;;16.58;45.46
80620;BME280;69979;53.682;-2.690;2023-08-07T04:21:02;101528.31;;;16.74;45.30
80620;BME280;69979;53.682;-2.690;2023-08-07T04:23:27;101527.66;;;16.91;44.63
80620;BME280;69979;53.682;-2.690;2023-08-07T04:25:53;101522.49;;;16.90;44.07
80620;BME280;69979;53.682;-2.690;2023-08-07T04:28:18;101523.77;;;17.21;43.45
80620;BME280;69979;53.682;-2.690;2023-08-07T04:30:44;101523.65;;;16.88;43.74
80620;BME280;69979;53.682;-2.690;2023-08-07T04:33:09;101522.60;;;17.09;43.65
80620;BME280;69979;53.682;-2.690;2023-08-07T04:35:34;101518.02;;;17.31;43.08
80620;BME280;69979;53.682;-2.690;2023-08-07T04:38:00;101521.44;;;17.40;42.31
80620;BME280;69979;53.682;-2.690;2023-08-07T04:40:25;101525.46;;;17.56;42.56
80620;BME280;69979;53.682;-2.690;2023-08-07T04:42:50;101523.67;;;17.56;42.63
80620;BME280;69979;53.682;-2.690;2023-08-07T04:45:16;101516.57;;;17.86;41.87
80620;BME280;69979;53.682;-2.690;2023-08-07T04:47:41;101513.14;;;17.01;43.23
80620;BME280;69979;53.682;-2.690;2023-08-07T04:50:08;101515.32;;;17.45;42.87
80620;BME280;69979;53.682;-2.690;2023-08-07T04:52:32;101516.10;;;17.48;42.47
80620;BME280;69979;53.682;-2.690;2023-08-07T04:54:58;101516.86;;;17.33;42.41
80620;BME280;69979;53.682;-2.690;2023-08-07T04:57:23;101514.98;;;17.37;42.48
80620;BME280;69979;53.682;-2.690;2023-08-07T04:59:48;101516.10;;;17.48;41.90
80620;BME280;69979;53.682;-2.690;2023-08-07T05:02:14;101516.31;;;17.84;41.65
80620;BME280;69979;53.682;-2.690;2023-08-07T05:04:39;101519.63;;;17.73;42.10
80620;BME280;69979;53.682;-2.690;2023-08-07T05:07:05;101523.18;;;17.41;42.25
80620;BME280;69979;53.682;-2.690;2023-08-07T05:09:30;101523.95;;;17.65;42.38
80620;BME280;69979;53.682;-2.690;2023-08-07T05:11:56;101526.87;;;16.73;43.83
80620;BME280;69979;53.682;-2.690;2023-08-07T05:14:21;101529.13;;;17.39;43.42
80620;BME280;69979;53.682;-2.690;2023-08-07T05:16:47;101527.21;;;17.40;42.92
80620;BME280;69979;53.682;-2.690;2023-08-07T05:19:12;101527.41;;;17.40;42.45
80620;BME280;69979;53.682;-2.690;2023-08-07T05:21:37;101525.76;;;17.34;43.09
80620;BME280;69979;53.682;-2.690;2023-08-07T05:24:03;101519.98;;;17.19;43.09
80620;BME280;69979;53.682;-2.690;2023-08-07T05:26:28;101516.99;;;17.19;43.02
80620;BME280;69979;53.682;-2.690;2023-08-07T05:28:53;101513.97;;;16.97;43.24
80620;BME280;69979;53.682;-2.690;2023-08-07T05:31:19;101509.74;;;17.13;43.11
80620;BME280;69979;53.682;-2.690;2023-08-07T05:33:44;101509.30;;;17.25;43.40
80620;BME280;69979;53.682;-2.690;2023-08-07T05:36:10;101506.37;;;17.22;42.56
80620;BME280;69979;53.682;-2.690;2023-08-07T05:38:35;101510.26;;;17.56;42.20
80620;BME280;69979;53.682;-2.690;2023-08-07T05:41:00;101508.67;;;17.48;42.55
80620;BME280;69979;53.682;-2.690;2023-08-07T05:43:26;101509.40;;;17.73;42.19
80620;BME280;69979;53.682;-2.690;2023-08-07T05:45:51;101506.82;;;17.56;42.13
80620;BME280;69979;53.682;-2.690;2023-08-07T05:48:17;101512.57;;;17.37;42.70
80620;BME280;69979;53.682;-2.690;2023-08-07T05:50:42;101511.83;;;17.38;42.45
80620;BME280;69979;53.682;-2.690;2023-08-07T05:53:08;101513.12;;;17.51;42.40
80620;BME280;69979;53.682;-2.690;2023-08-07T05:55:33;101515.06;;;17.19;43.19
80620;BME280;69979;53.682;-2.690;2023-08-07T05:57:58;101516.98;;;17.43;42.95
80620;BME280;69979;53.682;-2.690;2023-08-07T06:00:24;101518.88;;;17.28;43.14
80620;BME280;69979;53.682;-2.690;2023-08-07T06:02:49;101521.32;;;17.75;42.31
80620;BME280;69979;53.682;-2.690;2023-08-07T06:05:15;101518.59;;;17.63;42.01
80620;BME280;69979;53.682;-2.690;2023-08-07T06:07:40;101518.83;;;17.45;42.40
80620;BME280;69979;53.682;-2.690;2023-08-07T06:10:10;101522.25;;;17.12;43.80
80620;BME280;69979;53.682;-2.690;2023-08-07T06:12:31;101522.11;;;16.29;45.30
80620;BME280;69979;53.682;-2.690;2023-08-07T06:14:56;101517.35;;;16.05;46.29
80620;BME280;69979;53.682;-2.690;2023-08-07T06:17:22;101522.48;;;15.19;47.87
80620;BME280;69979;53.682;-2.690;2023-08-07T06:19:47;101521.78;;;15.53;47.62
80620;BME280;69979;53.682;-2.690;2023-08-07T06:22:13;101520.89;;;15.92;46.93
80620;BME280;69979;53.682;-2.690;2023-08-07T06:24:38;101526.32;;;14.81;49.11
80620;BME280;69979;53.682;-2.690;2023-08-07T06:27:04;101527.18;;;15.18;48.56
80620;BME280;69979;53.682;-2.690;2023-08-07T06:29:29;101525.47;;;15.40;48.44
80620;BME280;69979;53.682;-2.690;2023-08-07T06:31:54;101529.36;;;16.45;46.62
80620;BME280;69979;53.682;-2.690;2023-08-07T06:34:20;101528.64;;;16.08;47.29
80620;BME280;69979;53.682;-2.690;2023-08-07T06:36:45;101524.15;;;15.91;47.36
80620;BME280;69979;53.682;-2.690;2023-08-07T06:39:11;101529.96;;;13.40;53.88
80620;BME280;69979;53.682;-2.690;2023-08-07T06:41:37;101534.22;;;14.92;50.76
80620;BME280;69979;53.682;-2.690;2023-08-07T06:44:02;101533.34;;;14.09;51.78
80620;BME280;69979;53.682;-2.690;2023-08-07T06:46:27;101530.04;;;12.88;56.27
80620;BME280;69979;53.682;-2.690;2023-08-07T06:48:52;101531.08;;;13.89;54.04
80620;BME280;69979;53.682;-2.690;2023-08-07T06:51:18;101525.50;;;13.42;55.29
80620;BME280;69979;53.682;-2.690;2023-08-07T06:53:43;101527.30;;;13.73;54.27
80620;BME280;69979;53.682;-2.690;2023-08-07T06:56:09;101528.15;;;14.13;53.87
80620;BME280;69979;53.682;-2.690;2023-08-07T06:58:34;101529.53;;;14.03;53.93
80620;BME280;69979;53.682;-2.690;2023-08-07T07:01:00;101528.50;;;14.94;51.58
80620;BME280;69979;53.682;-2.690;2023-08-07T07:03:25;101526.15;;;12.82;56.54
80620;BME280;69979;53.682;-2.690;2023-08-07T07:05:51;101527.78;;;13.85;54.17
80620;BME280;69979;53.682;-2.690;2023-08-07T07:08:16;101525.23;;;13.49;54.96
80620;BME280;69979;53.682;-2.690;2023-08-07T07:10:42;101526.40;;;12.15;57.87
80620;BME280;69979;53.682;-2.690;2023-08-07T07:13:07;101524.08;;;13.52;54.84
80620;BME280;69979;53.682;-2.690;2023-08-07T07:15:33;101528.38;;;13.65;54.83
80620;BME280;69979;53.682;-2.690;2023-08-07T07:17:58;101527.83;;;13.77;54.74
80620;BME280;69979;53.682;-2.690;2023-08-07T07:20:23;101522.32;;;13.08;56.37
80620;BME280;69979;53.682;-2.690;2023-08-07T07:22:49;101529.82;;;12.50;57.85
80620;BME280;69979;53.682;-2.690;2023-08-07T07:25:14;101533.47;;;12.50;58.14
80620;BME280;69979;53.682;-2.690;2023-08-07T07:27:40;101534.67;;;11.69;59.24
80620;BME280;69979;53.682;-2.690;2023-08-07T07:30:07;101534.72;;;12.30;58.89
80620;BME280;69979;53.682;-2.690;2023-08-07T07:32:31;101531.42;;;11.98;57.73
80620;BME280;69979;53.682;-2.690;2023-08-07T07:34:56;101533.02;;;11.63;58.42
80620;BME280;69979;53.682;-2.690;2023-08-07T07:37:22;101529.48;;;12.24;57.41
80620;BME280;69979;53.682;-2.690;2023-08-07T07:39:47;101528.85;;;12.54;57.31
80620;BME280;69979;53.682;-2.690;2023-08-07T07:42:13;101530.39;;;13.07;55.56
80620;BME280;69979;53.682;-2.690;2023-08-07T07:44:38;101525.98;;;13.33;54.89
80620;BME280;69979;53.682;-2.690;2023-08-07T07:47:04;101527.95;;;13.16;54.43
80620;BME280;69979;53.682;-2.690;2023-08-07T07:49:29;101524.91;;;13.01;52.53
80620;BME280;69979;53.682;-2.690;2023-08-07T07:51:55;101530.53;;;12.96;53.63
80620;BME280;69979;53.682;-2.690;2023-08-07T07:54:21;101534.48;;;13.51;51.62
80620;BME280;69979;53.682;-2.690;2023-08-07T07:56:45;101534.90;;;13.65;51.23
80620;BME280;69979;53.682;-2.690;2023-08-07T07:59:11;101537.16;;;13.69;51.18
80620;BME280;69979;53.682;-2.690;2023-08-07T08:01:36;101544.77;;;12.12;54.19
80620;BME280;69979;53.682;-2.690;2023-08-07T08:04:02;101545.71;;;12.38;55.40
80620;BME280;69979;53.682;-2.690;2023-08-07T08:06:28;101549.86;;;12.51;53.74
80620;BME280;69979;53.682;-2.690;2023-08-07T08:08:53;101546.67;;;12.46;55.39
80620;BME280;69979;53.682;-2.690;2023-08-07T08:11:18;101547.02;;;12.33;55.40
80620;BME280;69979;53.682;-2.690;2023-08-07T08:13:44;101547.34;;;13.66;51.98
80620;BME280;69979;53.682;-2.690;2023-08-07T08:16:09;101547.85;;;13.57;51.26
80620;BME280;69979;53.682;-2.690;2023-08-07T08:18:35;101549.31;;;12.86;53.09
80620;BME280;69979;53.682;-2.690;2023-08-07T08:21:00;101548.46;;;13.39;52.72
80620;BME280;69979;53.682;-2.690;2023-08-07T08:23:25;101543.89;;;13.00;53.29
80620;BME280;69979;53.682;-2.690;2023-08-07T08:25:51;101542.61;;;13.85;50.38
80620;BME280;69979;53.682;-2.690;2023-08-07T08:28:17;101544.33;;;14.81;48.30
80620;BME280;69979;53.682;-2.690;2023-08-07T08:30:42;101542.17;;;14.88;48.69
80620;BME280;69979;53.682;-2.690;2023-08-07T08:33:07;101539.68;;;12.71;51.95
80620;BME280;69979;53.682;-2.690;2023-08-07T08:35:32;101543.43;;;12.49;52.31
80620;BME280;69979;53.682;-2.690;2023-08-07T08:37:58;101538.94;;;12.82;50.73
80620;BME280;69979;53.682;-2.690;2023-08-07T08:40:24;101536.07;;;14.46;48.80
80620;BME280;69979;53.682;-2.690;2023-08-07T08:42:49;101551.17;;;12.58;52.57
80620;BME280;69979;53.682;-2.690;2023-08-07T08:45:14;101542.82;;;12.90;51.64
80620;BME280;69979;53.682;-2.690;2023-08-07T08:47:41;101546.24;;;12.38;52.24
80620;BME280;69979;53.682;-2.690;2023-08-07T08:50:07;101550.98;;;13.27;51.07
80620;BME280;69979;53.682;-2.690;2023-08-07T08:52:31;101546.82;;;13.19;51.26
80620;BME280;69979;53.682;-2.690;2023-08-07T08:54:57;101550.84;;;13.95;48.89
80620;BME280;69979;53.682;-2.690;2023-08-07T08:57:23;101550.63;;;14.57;49.25
80620;BME280;69979;53.682;-2.690;2023-08-07T08:59:47;101546.92;;;14.61;45.29
80620;BME280;69979;53.682;-2.690;2023-08-07T09:02:13;101544.98;;;15.31;46.26
80620;BME280;69979;53.682;-2.690;2023-08-07T09:04:38;101539.85;;;13.38;50.64
80620;BME280;69979;53.682;-2.690;2023-08-07T09:07:04;101548.57;;;14.06;48.80
80620;BME280;69979;53.682;-2.690;2023-08-07T09:09:29;101546.66;;;13.49;49.92
80620;BME280;69979;53.682;-2.690;2023-08-07T09:11:55;101545.22;;;14.23;48.00
80620;BME280;69979;53.682;-2.690;2023-08-07T09:14:24;101543.73;;;15.46;46.73
80620;BME280;69979;53.682;-2.690;2023-08-07T09:16:46;101539.41;;;14.51;47.28
80620;BME280;69979;53.682;-2.690;2023-08-07T09:19:10;101542.15;;;13.48;48.31
80620;BME280;69979;53.682;-2.690;2023-08-07T09:21:36;101540.97;;;14.04;48.03
80620;BME280;69979;53.682;-2.690;2023-08-07T09:24:01;101539.67;;;13.91;48.62
80620;BME280;69979;53.682;-2.690;2023-08-07T09:26:27;101532.62;;;13.26;47.26
80620;BME280;69979;53.682;-2.690;2023-08-07T09:28:52;101531.04;;;13.41;46.74
80620;BME280;69979;53.682;-2.690;2023-08-07T09:31:18;101529.26;;;13.10;50.16
80620;BME280;69979;53.682;-2.690;2023-08-07T09:33:47;101525.56;;;13.72;47.42
80620;BME280;69979;53.682;-2.690;2023-08-07T09:36:08;101527.67;;;15.20;45.57
80620;BME280;69979;53.682;-2.690;2023-08-07T09:38:34;101543.67;;;14.73;44.60
80620;BME280;69979;53.682;-2.690;2023-08-07T09:41:00;101535.87;;;15.07;46.23
80620;BME280;69979;53.682;-2.690;2023-08-07T09:43:25;101537.26;;;14.51;47.26
80620;BME280;69979;53.682;-2.690;2023-08-07T09:45:50;101539.52;;;15.57;44.14
80620;BME280;69979;53.682;-2.690;2023-08-07T09:48:22;101531.42;;;13.34;47.45
80620;BME280;69979;53.682;-2.690;2023-08-07T09:50:41;101530.86;;;15.13;44.08
80620;BME280;69979;53.682;-2.690;2023-08-07T09:53:07;101543.73;;;14.09;45.78
80620;BME280;69979;53.682;-2.690;2023-08-07T09:55:32;101528.15;;;14.29;47.92
80620;BME280;69979;53.682;-2.690;2023-08-07T09:57:57;101526.07;;;13.22;50.74
80620;BME280;69979;53.682;-2.690;2023-08-07T10:00:23;101524.16;;;13.45;50.60
80620;BME280;69979;53.682;-2.690;2023-08-07T10:02:49;101526.73;;;12.59;51.58
80620;BME280;69979;53.682;-2.690;2023-08-07T10:05:14;101525.37;;;13.54;50.80
80620;BME280;69979;53.682;-2.690;2023-08-07T10:07:40;101522.78;;;13.13;51.26
80620;BME280;69979;53.682;-2.690;2023-08-07T10:10:06;101521.75;;;13.03;51.75
80620;BME280;69979;53.682;-2.690;2023-08-07T10:12:31;101525.95;;;13.12;50.21
80620;BME280;69979;53.682;-2.690;2023-08-07T10:14:55;101513.64;;;13.71;50.70
80620;BME280;69979;53.682;-2.690;2023-08-07T10:17:21;101519.94;;;14.07;50.62
80620;BME280;69979;53.682;-2.690;2023-08-07T10:19:46;101519.79;;;13.09;49.36
80620;BME280;69979;53.682;-2.690;2023-08-07T10:22:12;101518.11;;;13.77;48.24
80620;BME280;69979;53.682;-2.690;2023-08-07T10:24:40;101513.39;;;13.45;48.24
80620;BME280;69979;53.682;-2.690;2023-08-07T10:27:03;101523.99;;;13.94;47.61
80620;BME280;69979;53.682;-2.690;2023-08-07T10:29:29;101512.33;;;13.22;50.25
80620;BME280;69979;53.682;-2.690;2023-08-07T10:31:55;101517.61;;;13.87;47.53
80620;BME280;69979;53.682;-2.690;2023-08-07T10:34:19;101515.54;;;14.11;47.07
80620;BME280;69979;53.682;-2.690;2023-08-07T10:36:44;101507.91;;;14.42;44.91
80620;BME280;69979;53.682;-2.690;2023-08-07T10:39:12;101512.31;;;13.56;48.15
80620;BME280;69979;53.682;-2.690;2023-08-07T10:41:39;101511.35;;;14.34;42.88
80620;BME280;69979;53.682;-2.690;2023-08-07T10:44:00;101515.98;;;13.65;44.90
80620;BME280;69979;53.682;-2.690;2023-08-07T10:46:26;101514.39;;;13.06;47.68
80620;BME280;69979;53.682;-2.690;2023-08-07T10:48:55;101519.40;;;13.89;44.64
80620;BME280;69979;53.682;-2.690;2023-08-07T10:51:17;101514.53;;;13.14;45.73
80620;BME280;69979;53.682;-2.690;2023-08-07T10:53:44;101515.98;;;13.66;44.61
80620;BME280;69979;53.682;-2.690;2023-08-07T10:56:09;101519.52;;;13.74;43.86
80620;BME280;69979;53.682;-2.690;2023-08-07T10:58:34;101521.36;;;14.24;43.49
80620;BME280;69979;53.682;-2.690;2023-08-07T11:01:17;101515.08;;;13.74;45.02
80620;BME280;69979;53.682;-2.690;2023-08-07T11:03:27;101509.73;;;14.10;44.39
80620;BME280;69979;53.682;-2.690;2023-08-07T11:05:49;101504.19;;;12.99;46.45
80620;BME280;69979;53.682;-2.690;2023-08-07T11:08:15;101506.97;;;14.06;45.60
80620;BME280;69979;53.682;-2.690;2023-08-07T11:10:40;101506.77;;;13.20;46.00
80620;BME280;69979;53.682;-2.690;2023-08-07T11:13:05;101500.48;;;13.91;46.41
80620;BME280;69979;53.682;-2.690;2023-08-07T11:15:31;101498.48;;;13.13;47.71
80620;BME280;69979;53.682;-2.690;2023-08-07T11:17:56;101494.01;;;14.31;46.21
80620;BME280;69979;53.682;-2.690;2023-08-07T11:20:22;101492.93;;;14.27;44.93
80620;BME280;69979;53.682;-2.690;2023-08-07T11:22:48;101491.56;;;13.95;46.18
80620;BME280;69979;53.682;-2.690;2023-08-07T11:25:12;101492.21;;;14.10;45.94
80620;BME280;69979;53.682;-2.690;2023-08-07T11:27:38;101486.68;;;14.08;45.78
80620;BME280;69979;53.682;-2.690;2023-08-07T11:30:04;101493.63;;;13.57;45.34
80620;BME280;69979;53.682;-2.690;2023-08-07T11:32:29;101487.73;;;13.34;47.62
80620;BME280;69979;53.682;-2.690;2023-08-07T11:34:54;101483.30;;;13.23;47.51
80620;BME280;69979;53.682;-2.690;2023-08-07T11:37:20;101484.43;;;12.89;50.07
80620;BME280;69979;53.682;-2.690;2023-08-07T11:39:45;101484.24;;;13.88;48.93
80620;BME280;69979;53.682;-2.690;2023-08-07T11:42:11;101496.56;;;13.79;47.55
80620;BME280;69979;53.682;-2.690;2023-08-07T11:44:36;101481.99;;;13.63;48.75
80620;BME280;69979;53.682;-2.690;2023-08-07T11:47:02;101481.31;;;13.39;48.71
80620;BME280;69979;53.682;-2.690;2023-08-07T11:49:27;101476.90;;;13.78;49.70
80620;BME280;69979;53.682;-2.690;2023-08-07T11:51:53;101479.69;;;14.20;48.35
80620;BME280;69979;53.682;-2.690;2023-08-07T11:54:18;101480.65;;;14.03;48.26
80620;BME280;69979;53.682;-2.690;2023-08-07T11:56:43;101467.54;;;13.20;51.19
80620;BME280;69979;53.682;-2.690;2023-08-07T11:59:09;101476.27;;;13.67;50.38
80620;BME280;69979;53.682;-2.690;2023-08-07T12:01:38;101475.02;;;12.51;54.38
80620;BME280;69979;53.682;-2.690;2023-08-07T12:04:08;101465.69;;;12.99;52.93
80620;BME280;69979;53.682;-2.690;2023-08-07T12:06:25;101468.86;;;13.24;51.46
80620;BME280;69979;53.682;-2.690;2023-08-07T12:08:54;101470.13;;;13.91;49.65
80620;BME280;69979;53.682;-2.690;2023-08-07T12:11:16;101472.83;;;13.41;50.36
80620;BME280;69979;53.682;-2.690;2023-08-07T12:13:42;101475.57;;;13.74;50.51
80620;BME280;69979;53.682;-2.690;2023-08-07T12:16:08;101472.63;;;13.13;51.05
80620;BME280;69979;53.682;-2.690;2023-08-07T12:18:33;101474.51;;;14.32;49.20
80620;BME280;69979;53.682;-2.690;2023-08-07T12:20:58;101470.47;;;13.66;48.78
80620;BME280;69979;53.682;-2.690;2023-08-07T12:23:23;101472.77;;;13.09;49.67
80620;BME280;69979;53.682;-2.690;2023-08-07T12:25:48;101469.71;;;13.75;48.81
80620;BME280;69979;53.682;-2.690;2023-08-07T12:28:15;101471.53;;;12.92;50.42
80620;BME280;69979;53.682;-2.690;2023-08-07T12:30:39;101472.65;;;14.12;47.91
80620;BME280;69979;53.682;-2.690;2023-08-07T12:33:05;101467.76;;;14.24;46.84